createdAt,value
2023-04-10T00:02:26.841Z,14.30
2023-04-10T00:04:54.280Z,14.40
2023-04-10T00:07:21.948Z,14.40
2023-04-10T00:09:49.348Z,14.40
2023-04-10T00:12:16.691Z,14.40
2023-04-10T00:14:43.785Z,14.20
2023-04-10T00:17:11.208Z,14.10
2023-04-10T00:19:38.364Z,14.10
2023-04-10T00:22:05.974Z,14.10
2023-04-10T00:24:33.215Z,14.20
2023-04-10T00:27:01.626Z,14.10
2023-04-10T00:29:28.968Z,14.00
2023-04-10T00:31:56.385Z,13.90
2023-04-10T00:34:24.071Z,13.80
2023-04-10T00:36:51.585Z,13.60
2023-04-10T00:39:19.325Z,13.50
2023-04-10T00:41:46.557Z,13.20
2023-04-10T00:44:13.668Z,13.10
2023-04-10T00:46:41.489Z,13.00
2023-04-10T00:49:09.665Z,12.90
2023-04-10T00:51:38.047Z,12.80
2023-04-10T00:54:06.668Z,12.80
2023-04-10T00:56:34.220Z,12.60
2023-04-10T00:59:04.076Z,12.50
2023-04-10T01:01:33.444Z,12.50
2023-04-10T01:04:01.169Z,12.50
2023-04-10T01:06:37.988Z,12.50
2023-04-10T01:09:11.380Z,12.50
2023-04-10T01:11:49.291Z,12.60
2023-04-10T01:14:28.160Z,12.50
2023-04-10T01:17:06.180Z,12.50
2023-04-10T01:19:36.594Z,12.50
2023-04-10T01:22:10.656Z,12.50
2023-04-10T01:24:59.465Z,12.50
2023-04-10T01:27:39.087Z,12.50
2023-04-10T01:30:08.510Z,12.60
2023-04-10T01:32:36.988Z,12.70
2023-04-10T01:35:08.830Z,12.80
2023-04-10T01:37:41.106Z,12.80
2023-04-10T01:40:11.585Z,12.80
2023-04-10T01:42:45.474Z,12.80
2023-04-10T01:45:18.786Z,12.80
2023-04-10T01:47:49.260Z,12.70
2023-04-10T01:50:17.900Z,12.60
2023-04-10T01:52:46.628Z,12.50
2023-04-10T01:55:15.977Z,12.50
2023-04-10T01:57:49.252Z,12.40
2023-04-10T02:00:18.357Z,12.40
2023-04-10T02:02:46.656Z,12.40
2023-04-10T02:05:17.046Z,12.40
2023-04-10T02:07:54.677Z,12.40
2023-04-10T02:10:37.757Z,12.40
2023-04-10T02:13:07.894Z,12.50
2023-04-10T02:15:36.649Z,12.50
2023-04-10T02:18:06.727Z,12.60
2023-04-10T02:20:34.716Z,12.70
2023-04-10T02:23:04.161Z,12.70
2023-04-10T02:25:33.318Z,12.80
2023-04-10T02:28:05.404Z,12.90
2023-04-10T02:30:33.458Z,13.00
2023-04-10T02:33:01.673Z,13.00
2023-04-10T02:35:31.569Z,13.00
2023-04-10T02:37:58.908Z,13.00
2023-04-10T02:40:26.557Z,13.10
2023-04-10T02:43:03.429Z,13.10
2023-04-10T02:45:33.519Z,13.10
2023-04-10T02:48:00.914Z,13.20
2023-04-10T02:50:29.847Z,13.20
2023-04-10T02:52:57.240Z,13.30
2023-04-10T02:55:24.757Z,13.30
2023-04-10T02:57:52.110Z,13.30
2023-04-10T03:00:19.644Z,13.40
2023-04-10T03:03:06.889Z,13.40
2023-04-10T03:05:42.678Z,13.40
2023-04-10T03:08:09.999Z,13.40
2023-04-10T03:10:37.177Z,13.40
2023-04-10T03:13:04.722Z,13.40
2023-04-10T03:15:34.016Z,13.40
2023-04-10T03:18:01.380Z,13.40
2023-04-10T03:20:28.938Z,13.40
2023-04-10T03:22:56.256Z,13.40
2023-04-10T03:25:27.373Z,13.10
2023-04-10T03:27:55.795Z,12.70
2023-04-10T03:30:24.147Z,12.40
2023-04-10T03:32:51.484Z,12.10
2023-04-10T03:35:18.899Z,12.00
2023-04-10T03:37:46.354Z,11.80
2023-04-10T03:40:14.755Z,11.80
2023-04-10T03:42:42.356Z,11.90
2023-04-10T03:45:10.958Z,12.00
2023-04-10T03:47:38.606Z,12.00
2023-04-10T03:50:08.902Z,11.80
2023-04-10T03:52:45.420Z,11.60
2023-04-10T03:55:19.232Z,11.50
2023-04-10T03:57:48.355Z,11.40
2023-04-10T04:00:17.997Z,11.30
2023-04-10T04:02:47.531Z,11.30
2023-04-10T04:05:23.299Z,11.40
2023-04-10T04:07:52.163Z,11.50
2023-04-10T04:10:20.916Z,11.40
2023-04-10T04:12:53.983Z,11.50
2023-04-10T04:15:24.029Z,11.50
2023-04-10T04:17:57.582Z,11.60
2023-04-10T04:20:26.435Z,11.60
2023-04-10T04:22:55.126Z,11.60
2023-04-10T04:25:24.198Z,11.70
2023-04-10T04:27:51.356Z,11.70
2023-04-10T04:30:32.016Z,11.70
2023-04-10T04:33:01.011Z,11.60
2023-04-10T04:35:29.765Z,11.60
2023-04-10T04:38:14.457Z,11.50
2023-04-10T04:40:52.326Z,11.50
2023-04-10T04:43:38.396Z,11.50
2023-04-10T04:46:25.752Z,11.60
2023-04-10T04:48:54.856Z,11.60
2023-04-10T04:51:31.171Z,11.60
2023-04-10T04:54:00.050Z,11.60
2023-04-10T04:56:37.989Z,11.70
2023-04-10T04:59:15.670Z,11.80
2023-04-10T05:01:44.594Z,11.80
2023-04-10T05:04:13.476Z,11.80
2023-04-10T05:06:42.524Z,11.90
2023-04-10T05:09:17.013Z,11.80
2023-04-10T05:11:46.027Z,11.80
2023-04-10T05:14:18.742Z,11.80
2023-04-10T05:17:01.040Z,11.70
2023-04-10T05:19:31.072Z,11.70
2023-04-10T05:21:59.864Z,11.70
2023-04-10T05:24:47.126Z,11.70
2023-04-10T05:27:22.103Z,11.70
2023-04-10T05:32:16.845Z,11.80
2023-04-10T05:34:58.558Z,11.90
2023-04-10T05:37:27.419Z,11.90
2023-04-10T05:39:56.066Z,12.00
2023-04-10T05:42:24.895Z,12.00
2023-04-10T05:44:53.754Z,12.00
2023-04-10T05:47:32.816Z,12.10
2023-04-10T05:50:01.648Z,12.10
2023-04-10T05:52:31.094Z,12.10
2023-04-10T05:55:06.245Z,12.10
2023-04-10T05:57:35.019Z,12.20
2023-04-10T06:00:08.265Z,12.20
2023-04-10T06:02:37.307Z,12.20
2023-04-10T06:05:07.697Z,12.20
2023-04-10T06:07:37.388Z,12.20
2023-04-10T06:10:05.120Z,12.20
2023-04-10T06:12:39.542Z,12.20
2023-04-10T06:15:10.061Z,12.20
2023-04-10T06:17:41.924Z,12.20
2023-04-10T06:20:10.241Z,12.30
2023-04-10T06:22:37.391Z,12.30
2023-04-10T06:25:07.312Z,12.30
2023-04-10T06:27:35.954Z,12.20
2023-04-10T06:30:04.236Z,12.20
2023-04-10T06:32:31.927Z,12.10
2023-04-10T06:34:59.364Z,12.10
2023-04-10T06:37:31.586Z,12.10
2023-04-10T06:40:02.325Z,12.10
2023-04-10T06:42:29.606Z,12.10
2023-04-10T06:45:02.032Z,12.10
2023-04-10T06:47:29.761Z,12.20
2023-04-10T06:49:56.909Z,12.20
2023-04-10T06:52:24.245Z,12.30
2023-04-10T06:54:51.536Z,12.30
2023-04-10T06:57:18.955Z,12.30
2023-04-10T06:59:46.200Z,12.40
2023-04-10T07:02:13.839Z,12.40
2023-04-10T07:04:42.012Z,12.40
2023-04-10T07:07:12.544Z,12.40
2023-04-10T07:09:40.606Z,12.50
2023-04-10T07:12:07.988Z,12.50
2023-04-10T07:14:35.866Z,12.50
2023-04-10T07:17:03.577Z,12.50
2023-04-10T07:19:31.678Z,12.60
2023-04-10T07:21:58.948Z,12.50
2023-04-10T07:24:26.525Z,12.60
2023-04-10T07:26:53.975Z,12.70
2023-04-10T07:29:21.383Z,12.70
2023-04-10T07:31:48.951Z,12.70
2023-04-10T07:34:16.295Z,12.70
2023-04-10T07:36:46.020Z,12.80
2023-04-10T07:39:13.570Z,12.80
2023-04-10T07:41:40.772Z,12.90
2023-04-10T07:44:07.884Z,13.00
2023-04-10T07:46:35.226Z,13.10
2023-04-10T07:49:02.486Z,13.10
2023-04-10T07:51:30.258Z,13.20
2023-04-10T07:53:57.425Z,13.30
2023-04-10T07:56:24.737Z,13.30
2023-04-10T07:58:52.146Z,13.40
2023-04-10T08:01:20.066Z,13.40
2023-04-10T08:03:47.873Z,13.50
2023-04-10T08:06:15.533Z,13.60
2023-04-10T08:08:43.005Z,13.70
2023-04-10T08:11:13.668Z,13.70
2023-04-10T08:13:41.025Z,13.80
2023-04-10T08:16:08.834Z,13.90
2023-04-10T08:18:36.033Z,14.10
2023-04-10T08:21:03.197Z,14.20
2023-04-10T08:23:30.438Z,14.20
2023-04-10T08:25:57.805Z,14.40
2023-04-10T08:28:25.049Z,14.50
2023-04-10T08:30:54.137Z,14.60
2023-04-10T08:33:21.241Z,14.70
2023-04-10T08:35:49.284Z,14.70
2023-04-10T08:38:16.550Z,14.60
2023-04-10T08:40:44.870Z,14.70
2023-04-10T08:43:12.268Z,14.70
2023-04-10T08:45:41.830Z,14.80
2023-04-10T08:48:11.662Z,14.80
2023-04-10T08:50:42.533Z,14.90
2023-04-10T08:53:13.443Z,15.00
2023-04-10T08:55:41.960Z,15.10
2023-04-10T08:58:10.505Z,15.30
2023-04-10T09:00:38.842Z,15.80
2023-04-10T09:03:12.120Z,16.00
2023-04-10T09:05:39.656Z,16.20
2023-04-10T09:08:09.032Z,16.40
2023-04-10T09:10:36.618Z,16.40
2023-04-10T09:13:03.846Z,16.50
2023-04-10T09:15:31.101Z,16.40
2023-04-10T09:18:01.689Z,16.20
2023-04-10T09:20:31.689Z,16.20
2023-04-10T09:22:58.931Z,16.20
2023-04-10T09:25:30.641Z,16.20
2023-04-10T09:28:01.456Z,16.20
2023-04-10T09:30:31.733Z,16.20
2023-04-10T09:33:00.080Z,16.10
2023-04-10T09:35:31.603Z,16.20
2023-04-10T09:37:58.993Z,16.70
2023-04-10T09:40:26.336Z,17.20
2023-04-10T09:42:56.171Z,17.60
2023-04-10T09:45:23.682Z,17.80
2023-04-10T09:47:54.080Z,17.60
2023-04-10T09:50:39.289Z,17.40
2023-04-10T09:53:09.730Z,17.20
2023-04-10T09:55:38.011Z,17.10
2023-04-10T09:58:06.545Z,17.10
2023-04-10T10:00:40.936Z,17.30
2023-04-10T10:03:10.912Z,17.20
2023-04-10T10:05:41.114Z,17.10
2023-04-10T10:08:11.360Z,16.90
2023-04-10T10:10:46.150Z,16.80
2023-04-10T10:13:18.369Z,16.80
2023-04-10T10:15:58.297Z,16.90
2023-04-10T10:18:33.527Z,17.20
2023-04-10T10:21:01.724Z,17.20
2023-04-10T10:23:29.243Z,17.30
2023-04-10T10:25:58.540Z,17.30
2023-04-10T10:28:28.060Z,17.40
2023-04-10T10:30:55.905Z,17.60
2023-04-10T10:33:25.490Z,17.70
2023-04-10T10:35:53.766Z,17.80
2023-04-10T10:38:21.508Z,18.00
2023-04-10T10:41:00.727Z,18.10
2023-04-10T10:43:38.205Z,18.20
2023-04-10T10:46:12.974Z,18.40
2023-04-10T10:48:40.349Z,18.50
2023-04-10T10:51:07.728Z,18.50
2023-04-10T10:53:37.688Z,18.70
2023-04-10T10:56:26.834Z,18.80
2023-04-10T10:58:57.807Z,19.00
2023-04-10T11:01:26.535Z,19.00
2023-04-10T11:03:54.026Z,18.80
2023-04-10T11:06:44.705Z,18.70
2023-04-10T11:09:52.115Z,18.70
2023-04-10T11:12:22.551Z,18.80
2023-04-10T11:15:05.251Z,18.80
2023-04-10T11:17:54.704Z,18.60
2023-04-10T11:20:26.040Z,18.60
2023-04-10T11:22:56.745Z,18.50
2023-04-10T11:25:47.558Z,18.60
2023-04-10T11:28:17.935Z,18.90
2023-04-10T11:30:45.359Z,19.10
2023-04-10T11:33:19.404Z,19.30
2023-04-10T11:35:47.140Z,19.30
2023-04-10T11:38:17.333Z,19.20
2023-04-10T11:40:47.752Z,19.10
2023-04-10T11:43:15.343Z,18.80
2023-04-10T11:45:42.631Z,18.70
2023-04-10T11:48:09.901Z,18.40
2023-04-10T11:50:37.322Z,18.20
2023-04-10T11:53:19.233Z,18.10
2023-04-10T11:55:47.090Z,18.00
2023-04-10T11:58:17.532Z,17.90
2023-04-10T12:00:44.806Z,17.70
2023-04-10T12:03:12.106Z,17.70
2023-04-10T12:05:48.521Z,17.90
2023-04-10T12:08:15.880Z,18.10
2023-04-10T12:10:45.617Z,18.20
2023-04-10T12:13:26.972Z,18.30
2023-04-10T12:15:54.801Z,18.30
2023-04-10T12:18:22.513Z,18.20
2023-04-10T12:20:51.981Z,18.10
2023-04-10T12:23:19.172Z,18.10
2023-04-10T12:25:46.435Z,18.10
2023-04-10T12:28:17.001Z,18.20
2023-04-10T12:30:47.509Z,18.30
2023-04-10T12:33:14.854Z,18.30
2023-04-10T12:35:43.018Z,18.20
2023-04-10T12:38:10.315Z,18.20
2023-04-10T12:40:38.846Z,18.20
2023-04-10T12:43:06.109Z,18.20
2023-04-10T12:45:37.087Z,18.20
2023-04-10T12:48:04.510Z,18.40
2023-04-10T12:50:31.861Z,18.60
2023-04-10T12:53:02.417Z,18.70
2023-04-10T12:55:29.769Z,18.50
2023-04-10T12:57:57.528Z,18.40
2023-04-10T13:00:26.374Z,18.10
2023-04-10T13:02:53.816Z,18.00
2023-04-10T13:05:22.195Z,17.90
2023-04-10T13:07:52.968Z,17.60
2023-04-10T13:10:20.453Z,17.60
2023-04-10T13:12:47.684Z,17.50
2023-04-10T13:15:14.971Z,17.60
2023-04-10T13:17:42.204Z,17.60
2023-04-10T13:20:11.296Z,17.60
2023-04-10T13:22:38.504Z,17.50
2023-04-10T13:25:06.244Z,17.40
2023-04-10T13:27:33.432Z,17.30
2023-04-10T13:30:00.824Z,17.30
2023-04-10T13:32:27.973Z,17.20
2023-04-10T13:34:56.237Z,17.10
2023-04-10T13:37:23.503Z,17.10
2023-04-10T13:39:50.984Z,17.00
2023-04-10T13:42:18.365Z,17.10
2023-04-10T13:44:45.805Z,17.10
2023-04-10T13:47:13.059Z,17.10
2023-04-10T13:49:40.567Z,17.20
2023-04-10T13:52:07.718Z,17.30
2023-04-10T13:54:35.002Z,17.40
2023-04-10T13:57:02.972Z,17.40
2023-04-10T13:59:30.886Z,17.30
2023-04-10T14:01:58.123Z,17.20
2023-04-10T14:04:25.731Z,17.00
2023-04-10T14:06:57.998Z,17.00
2023-04-10T14:09:25.391Z,16.90
2023-04-10T14:11:52.737Z,17.00
2023-04-10T14:14:21.387Z,17.00
2023-04-10T14:16:48.562Z,17.00
2023-04-10T14:19:15.961Z,17.10
2023-04-10T14:21:44.486Z,17.00
2023-04-10T14:24:12.135Z,17.00
2023-04-10T14:26:39.346Z,17.00
2023-04-10T14:29:08.669Z,17.00
2023-04-10T14:31:41.473Z,16.90
2023-04-10T14:34:18.801Z,17.00
2023-04-10T14:36:45.923Z,16.90
2023-04-10T14:39:13.193Z,17.00
2023-04-10T14:41:40.451Z,17.10
2023-04-10T14:44:07.685Z,17.20
2023-04-10T14:46:34.835Z,17.40
2023-04-10T14:49:02.356Z,17.40
2023-04-10T14:51:29.753Z,17.60
2023-04-10T14:53:57.087Z,17.60
2023-04-10T14:56:24.441Z,17.70
2023-04-10T14:58:51.815Z,17.60
2023-04-10T15:01:18.971Z,17.60
2023-04-10T15:03:48.865Z,17.60
2023-04-10T15:06:16.225Z,17.50
2023-04-10T15:08:43.536Z,17.40
2023-04-10T15:11:13.120Z,17.40
2023-04-10T15:13:40.405Z,17.30
2023-04-10T15:16:08.458Z,17.20
2023-04-10T15:18:35.777Z,17.10
2023-04-10T15:21:02.946Z,17.00
2023-04-10T15:23:30.274Z,17.10
2023-04-10T15:25:58.126Z,17.10
2023-04-10T15:28:25.444Z,17.10
2023-04-10T15:30:53.616Z,17.10
2023-04-10T15:33:22.122Z,17.00
2023-04-10T15:35:50.187Z,16.90
2023-04-10T15:38:17.548Z,16.90
2023-04-10T15:40:44.755Z,16.80
2023-04-10T15:43:13.394Z,16.60
2023-04-10T15:45:40.545Z,16.50
2023-04-10T15:48:07.862Z,16.40
2023-04-10T15:50:36.818Z,16.20
2023-04-10T15:53:04.034Z,16.20
2023-04-10T15:55:31.373Z,16.10
2023-04-10T15:57:59.859Z,16.10
2023-04-10T16:00:28.924Z,16.20
2023-04-10T16:02:57.202Z,16.20
2023-04-10T16:05:24.541Z,16.20
2023-04-10T16:07:51.775Z,16.20
2023-04-10T16:10:19.025Z,16.20
2023-04-10T16:12:46.390Z,16.20
2023-04-10T16:15:13.797Z,16.20
2023-04-10T16:17:41.232Z,16.20
2023-04-10T16:20:08.868Z,16.10
2023-04-10T16:22:36.961Z,16.10
2023-04-10T16:27:31.886Z,16.00
2023-04-10T16:29:59.130Z,16.00
2023-04-10T16:32:26.449Z,16.00
2023-04-10T16:34:53.671Z,15.90
2023-04-10T16:37:21.028Z,15.90
2023-04-10T16:39:48.280Z,15.80
2023-04-10T16:42:15.694Z,15.70
2023-04-10T16:44:42.832Z,15.70
2023-04-10T16:47:10.374Z,15.60
2023-04-10T16:49:38.300Z,15.50
2023-04-10T16:52:05.741Z,15.50
2023-04-10T16:54:33.032Z,15.40
2023-04-10T16:57:01.416Z,15.40
2023-04-10T16:59:28.582Z,15.40
2023-04-10T17:01:55.940Z,15.40
2023-04-10T17:04:23.314Z,15.40
2023-04-10T17:06:50.765Z,15.40
2023-04-10T17:09:18.144Z,15.40
2023-04-10T17:11:45.354Z,15.40
2023-04-10T17:14:13.452Z,15.40
2023-04-10T17:16:41.077Z,15.40
2023-04-10T17:19:08.227Z,15.40
2023-04-10T17:21:35.585Z,15.30
2023-04-10T17:24:02.764Z,15.30
2023-04-10T17:26:31.124Z,15.30
2023-04-10T17:28:58.322Z,15.30
2023-04-10T17:31:25.891Z,15.30
2023-04-10T17:33:53.047Z,15.30
2023-04-10T17:36:21.004Z,15.20
2023-04-10T17:38:53.690Z,15.20
2023-04-10T17:41:21.471Z,15.20
2023-04-10T17:43:49.165Z,15.20
2023-04-10T17:46:16.791Z,15.20
2023-04-10T17:48:45.143Z,15.20
2023-04-10T17:51:12.631Z,15.20
2023-04-10T17:53:39.826Z,15.10
2023-04-10T17:56:07.719Z,15.20
2023-04-10T17:58:35.049Z,15.00
2023-04-10T18:01:02.510Z,15.00
2023-04-10T18:03:29.755Z,15.00
2023-04-10T18:05:57.032Z,15.00
2023-04-10T18:08:24.414Z,15.00
2023-04-10T18:10:52.907Z,15.00
2023-04-10T18:13:20.277Z,15.00
2023-04-10T18:15:47.601Z,15.00
2023-04-10T18:18:14.767Z,15.00
2023-04-10T18:20:42.096Z,14.90
2023-04-10T18:23:09.348Z,14.90
2023-04-10T18:25:36.605Z,14.90
2023-04-10T18:28:14.616Z,14.90
2023-04-10T18:30:43.364Z,14.90
2023-04-10T18:33:11.465Z,14.90
2023-04-10T18:35:39.230Z,14.90
2023-04-10T18:38:06.840Z,14.80
2023-04-10T18:40:36.924Z,14.80
2023-04-10T18:43:04.231Z,14.80
2023-04-10T18:45:34.335Z,14.80
2023-04-10T18:48:01.864Z,14.80
2023-04-10T18:50:30.764Z,14.80
2023-04-10T18:52:57.890Z,14.80
2023-04-10T18:55:25.362Z,14.80
2023-04-10T18:57:52.623Z,14.80
2023-04-10T19:00:19.994Z,14.80
2023-04-10T19:02:47.352Z,14.90
2023-04-10T19:05:16.752Z,14.90
2023-04-10T19:07:56.744Z,14.90
2023-04-10T19:10:28.452Z,14.90
2023-04-10T19:12:56.586Z,14.90
2023-04-10T19:15:25.272Z,14.90
2023-04-10T19:17:53.994Z,14.90
2023-04-10T19:20:51.106Z,14.90
2023-04-10T19:23:09.786Z,14.90
2023-04-10T19:25:37.062Z,14.80
2023-04-10T19:28:04.551Z,14.80
2023-04-10T19:30:31.934Z,14.80
2023-04-10T19:32:59.379Z,14.80
2023-04-10T19:35:26.776Z,14.80
2023-04-10T19:37:57.798Z,14.80
2023-04-10T19:40:25.178Z,14.80
2023-04-10T19:42:52.366Z,14.70
2023-04-10T19:45:20.579Z,14.70
2023-04-10T19:47:50.997Z,14.70
2023-04-10T19:50:18.299Z,14.80
2023-04-10T19:52:45.616Z,14.70
2023-04-10T19:55:13.430Z,14.80
2023-04-10T19:57:40.796Z,14.80
2023-04-10T20:00:09.933Z,14.80
2023-04-10T20:02:38.868Z,14.80
2023-04-10T20:05:07.267Z,14.90
2023-04-10T20:07:35.138Z,14.90
2023-04-10T20:10:05.085Z,14.90
2023-04-10T20:12:33.397Z,14.90
2023-04-10T20:15:02.203Z,14.80
2023-04-10T20:17:29.876Z,14.70
2023-04-10T20:19:57.376Z,14.60
2023-04-10T20:22:25.618Z,14.60
2023-04-10T20:24:52.900Z,14.60
2023-04-10T20:27:20.085Z,14.60
2023-04-10T20:29:47.479Z,14.60
2023-04-10T20:32:14.635Z,14.70
2023-04-10T20:34:41.835Z,14.80
2023-04-10T20:37:09.024Z,14.80
2023-04-10T20:39:37.896Z,14.80
2023-04-10T20:42:06.598Z,14.90
2023-04-10T20:44:37.718Z,14.90
2023-04-10T20:47:06.514Z,14.90
2023-04-10T20:49:33.914Z,14.90
2023-04-10T20:52:01.255Z,14.90
2023-04-10T20:54:28.427Z,14.90
2023-04-10T20:56:59.912Z,14.90
2023-04-10T20:59:27.562Z,14.90
2023-04-10T21:01:54.983Z,14.80
2023-04-10T21:04:22.437Z,14.80
2023-04-10T21:06:49.658Z,14.80
2023-04-10T21:09:16.832Z,14.80
2023-04-10T21:11:44.128Z,14.80
2023-04-10T21:14:11.479Z,14.80
2023-04-10T21:16:42.660Z,14.90
2023-04-10T21:19:10.103Z,14.90
2023-04-10T21:21:37.730Z,14.90
2023-04-10T21:24:05.618Z,14.80
2023-04-10T21:26:32.855Z,14.80
2023-04-10T21:29:00.230Z,14.80
2023-04-10T21:31:27.462Z,14.80
2023-04-10T21:33:54.796Z,14.80
2023-04-10T21:36:22.123Z,14.80
2023-04-10T21:38:49.429Z,14.70
2023-04-10T21:41:16.607Z,14.60
2023-04-10T21:43:43.919Z,14.50
2023-04-10T21:46:11.160Z,14.40
2023-04-10T21:48:38.498Z,14.30
2023-04-10T21:51:05.979Z,14.30
2023-04-10T21:53:33.318Z,14.30
2023-04-10T21:56:00.462Z,14.30
2023-04-10T21:58:27.745Z,14.40
2023-04-10T22:00:55.051Z,14.40
2023-04-10T22:03:22.532Z,14.40
2023-04-10T22:05:50.739Z,14.40
2023-04-10T22:08:20.048Z,14.40
2023-04-10T22:10:48.215Z,14.40
2023-04-10T22:15:46.728Z,14.50
2023-04-10T22:18:13.965Z,14.50
2023-04-10T22:20:41.313Z,14.50
2023-04-10T22:23:08.978Z,14.50
2023-04-10T22:25:38.598Z,14.40
2023-04-10T22:28:06.178Z,14.30
2023-04-10T22:30:34.474Z,14.20
2023-04-10T22:33:01.945Z,14.20
2023-04-10T22:35:29.641Z,14.10
2023-04-10T22:37:57.156Z,14.10
2023-04-10T22:40:25.742Z,14.10
2023-04-10T22:42:53.067Z,14.20
2023-04-10T22:45:20.385Z,14.20
2023-04-10T22:47:47.545Z,14.20
2023-04-10T22:50:15.080Z,14.20
2023-04-10T22:52:42.193Z,14.20
2023-04-10T22:55:09.906Z,14.20
2023-04-10T22:57:37.186Z,14.20
2023-04-10T23:00:04.930Z,14.20
2023-04-10T23:02:32.139Z,14.30
2023-04-10T23:04:59.697Z,14.30
2023-04-10T23:07:28.069Z,14.30
2023-04-10T23:09:55.366Z,14.20
2023-04-10T23:12:22.524Z,14.30
2023-04-10T23:14:49.942Z,14.20
2023-04-10T23:17:17.094Z,14.20
2023-04-10T23:19:44.374Z,14.20
2023-04-10T23:22:12.765Z,14.20
2023-04-10T23:24:39.986Z,14.20
2023-04-10T23:27:08.120Z,14.10
2023-04-10T23:29:36.128Z,14.20
2023-04-10T23:32:03.328Z,14.20
2023-04-10T23:34:30.727Z,14.20
2023-04-10T23:36:58.319Z,14.10
2023-04-10T23:39:25.672Z,14.10
2023-04-10T23:41:53.046Z,14.00
2023-04-10T23:44:20.283Z,14.00
2023-04-10T23:46:48.303Z,14.00
2023-04-10T23:49:15.741Z,14.00
2023-04-10T23:51:43.075Z,14.00
2023-04-10T23:54:12.679Z,14.00
2023-04-10T23:56:39.937Z,14.00
2023-04-10T23:59:07.256Z,14.00
